createdAt,value
2019-04-06T00:00:24.880Z,78.55
2019-04-06T00:01:24.863Z,78.96
2019-04-06T00:02:24.850Z,77.62
2019-04-06T00:03:24.865Z,76.86
2019-04-06T00:04:24.833Z,77.28
2019-04-06T00:05:24.829Z,76.97
2019-04-06T00:06:24.804Z,76.56
2019-04-06T00:07:24.795Z,75.90
2019-04-06T00:08:24.785Z,75.39
2019-04-06T00:09:24.773Z,74.98
2019-04-06T00:10:24.766Z,75.29
2019-04-06T00:11:24.755Z,75.49
2019-04-06T00:12:24.768Z,74.67
2019-04-06T00:13:24.735Z,74.98
2019-04-06T00:14:24.719Z,75.63
2019-04-06T00:15:24.705Z,75.84
2019-04-06T00:16:24.780Z,76.28
2019-04-06T00:17:24.697Z,77.35
2019-04-06T00:18:24.679Z,77.04
2019-04-06T00:19:24.714Z,77.38
2019-04-06T00:20:24.659Z,78.11
2019-04-06T00:21:24.654Z,78.31
2019-04-06T00:22:24.633Z,78.93
2019-04-06T00:23:24.626Z,79.00
2019-04-06T00:24:24.656Z,79.03
2019-04-06T00:25:24.612Z,78.89
2019-04-06T00:26:24.590Z,78.89
2019-04-06T00:27:24.839Z,79.55
2019-04-06T00:28:24.570Z,80.06
2019-04-06T00:29:24.570Z,79.90
2019-04-06T00:30:24.541Z,79.96
2019-04-06T00:31:24.538Z,78.75
2019-04-06T00:32:24.522Z,76.76
2019-04-06T00:33:24.534Z,75.42
2019-04-06T00:34:24.511Z,74.77
2019-04-06T00:35:24.495Z,75.18
2019-04-06T00:36:24.479Z,74.87
2019-04-06T00:37:24.465Z,75.08
2019-04-06T00:38:24.455Z,74.46
2019-04-06T00:39:24.450Z,74.46
2019-04-06T00:40:24.435Z,75.39
2019-04-06T00:41:24.421Z,75.42
2019-04-06T00:42:24.412Z,75.77
2019-04-06T00:43:24.403Z,75.87
2019-04-06T00:44:24.387Z,77.14
2019-04-06T00:45:24.379Z,77.76
2019-04-06T00:46:24.366Z,77.04
2019-04-06T00:47:24.356Z,77.55
2019-04-06T00:48:24.341Z,77.51
2019-04-06T00:49:24.339Z,77.83
2019-04-06T00:50:24.322Z,77.51
2019-04-06T00:51:24.307Z,77.51
2019-04-06T00:52:24.305Z,77.51
2019-04-06T00:53:24.288Z,77.51
2019-04-06T00:54:24.277Z,79.10
2019-04-06T00:55:24.266Z,79.34
2019-04-06T00:56:24.264Z,79.75
2019-04-06T00:57:24.244Z,80.51
2019-04-06T00:58:24.252Z,80.51
2019-04-06T00:59:24.228Z,81.03
2019-04-06T01:00:24.209Z,80.30
2019-04-06T01:01:24.224Z,80.62
2019-04-06T01:02:24.194Z,80.27
2019-04-06T01:03:24.182Z,79.65
2019-04-06T01:04:24.166Z,79.86
2019-04-06T01:05:24.178Z,80.06
2019-04-06T01:06:24.145Z,81.23
2019-04-06T01:07:24.137Z,81.79
2019-04-06T01:08:24.126Z,82.65
2019-04-06T01:09:24.127Z,83.37
2019-04-06T01:10:24.165Z,84.72
2019-04-06T01:11:24.097Z,85.27
2019-04-06T01:12:24.086Z,85.41
2019-04-06T01:13:24.070Z,86.65
2019-04-06T01:14:24.057Z,86.76
2019-04-06T01:15:24.078Z,87.79
2019-04-06T01:16:24.032Z,88.14
2019-04-06T01:17:24.032Z,88.80
2019-04-06T01:18:24.020Z,89.32
2019-04-06T01:19:24.019Z,89.42
2019-04-06T01:20:23.994Z,89.42
2019-04-06T01:21:23.979Z,89.77
2019-04-06T01:22:23.975Z,90.39
2019-04-06T01:23:23.962Z,90.19
2019-04-06T01:24:23.948Z,90.80
2019-04-06T01:25:23.938Z,90.74
2019-04-06T01:26:23.923Z,91.05
2019-04-06T01:27:23.914Z,90.84
2019-04-06T01:28:23.905Z,90.74
2019-04-06T01:29:23.899Z,91.16
2019-04-06T01:30:23.886Z,91.82
2019-04-06T01:31:23.880Z,91.99
2019-04-06T01:32:23.904Z,91.99
2019-04-06T01:33:23.891Z,92.03
2019-04-06T01:34:23.856Z,92.03
2019-04-06T01:35:23.875Z,92.44
2019-04-06T01:36:23.815Z,93.02
2019-04-06T01:37:23.813Z,92.71
2019-04-06T01:38:23.803Z,92.61
2019-04-06T01:39:23.786Z,92.71
2019-04-06T01:40:23.774Z,92.50
2019-04-06T01:41:23.760Z,92.96
2019-04-06T01:42:23.760Z,91.97
2019-04-06T01:43:23.746Z,93.00
2019-04-06T01:44:23.724Z,92.38
2019-04-06T01:45:23.715Z,92.84
2019-04-06T01:46:23.775Z,92.63
2019-04-06T01:47:23.697Z,92.68
2019-04-06T01:48:23.685Z,92.98
2019-04-06T01:49:23.680Z,93.02
2019-04-06T01:50:23.741Z,92.93
2019-04-06T01:51:23.651Z,92.93
2019-04-06T01:52:23.637Z,93.02
2019-04-06T01:53:23.631Z,93.85
2019-04-06T01:54:23.615Z,94.33
2019-04-06T01:55:23.605Z,94.18
2019-04-06T01:56:23.609Z,94.70
2019-04-06T01:57:23.603Z,94.76
2019-04-06T01:58:23.572Z,94.39
2019-04-06T01:59:23.576Z,94.49
2019-04-06T02:00:23.563Z,93.96
2019-04-06T02:01:23.549Z,94.48
2019-04-06T02:02:23.548Z,94.48
2019-04-06T02:03:23.517Z,94.32
2019-04-06T02:04:23.510Z,95.00
2019-04-06T02:05:23.512Z,94.79
2019-04-06T02:06:23.526Z,95.06
2019-04-06T02:07:23.485Z,95.06
2019-04-06T02:08:23.490Z,94.95
2019-04-06T02:09:23.527Z,95.37
2019-04-06T02:10:23.451Z,95.57
2019-04-06T02:11:23.454Z,95.78
2019-04-06T02:12:23.422Z,95.57
2019-04-06T02:13:23.413Z,95.16
2019-04-06T02:14:23.410Z,95.51
2019-04-06T02:15:23.386Z,95.62
2019-04-06T02:16:23.404Z,95.31
2019-04-06T02:17:23.367Z,95.56
2019-04-06T02:18:23.364Z,95.83
2019-04-06T02:19:23.348Z,95.83
2019-04-06T02:20:23.356Z,95.72
2019-04-06T02:21:23.357Z,95.77
2019-04-06T02:22:23.310Z,96.55
2019-04-06T02:23:23.304Z,96.20
2019-04-06T02:24:23.373Z,96.41
2019-04-06T02:25:23.281Z,96.30
2019-04-06T02:26:30.363Z,96.20
2019-04-06T02:27:24.255Z,96.20
2019-04-06T02:28:23.243Z,95.89
2019-04-06T02:29:23.232Z,95.57
2019-04-06T02:30:23.273Z,95.89
2019-04-06T02:31:23.212Z,95.78
2019-04-06T02:32:23.201Z,95.41
2019-04-06T02:33:23.185Z,95.51
2019-04-06T02:34:23.185Z,95.83
2019-04-06T02:35:23.185Z,95.83
2019-04-06T02:36:23.150Z,95.62
2019-04-06T02:37:23.149Z,95.93
2019-04-06T02:38:23.277Z,95.83
2019-04-06T02:39:23.122Z,95.99
2019-04-06T02:40:23.107Z,96.24
2019-04-06T02:41:23.109Z,96.03
2019-04-06T02:42:23.089Z,95.62
2019-04-06T02:43:23.075Z,95.93
2019-04-06T02:44:23.077Z,95.67
2019-04-06T02:45:23.056Z,95.46
2019-04-06T02:46:23.046Z,96.29
2019-04-06T02:47:23.035Z,96.76
2019-04-06T02:48:23.028Z,96.82
2019-04-06T02:49:23.015Z,96.51
2019-04-06T02:50:23.146Z,96.61
2019-04-06T02:51:22.997Z,96.34
2019-04-06T02:52:22.975Z,96.61
2019-04-06T02:53:22.971Z,96.61
2019-04-06T02:54:22.955Z,96.61
2019-04-06T02:55:22.944Z,96.30
2019-04-06T02:56:22.931Z,96.24
2019-04-06T02:57:22.930Z,96.19
2019-04-06T02:58:24.609Z,95.87
2019-04-06T02:59:22.900Z,96.12
2019-04-06T03:00:22.891Z,96.50
2019-04-06T03:01:22.880Z,96.54
2019-04-06T03:02:22.874Z,96.12
2019-04-06T03:03:22.855Z,96.33
2019-04-06T03:04:22.874Z,96.70
2019-04-06T03:05:22.833Z,96.81
2019-04-06T03:06:22.884Z,96.66
2019-04-06T03:07:22.827Z,96.61
2019-04-06T03:08:22.806Z,96.51
2019-04-06T03:09:22.789Z,96.41
2019-04-06T03:10:22.779Z,96.30
2019-04-06T03:11:22.777Z,96.24
2019-04-06T03:12:22.764Z,96.34
2019-04-06T03:13:22.755Z,96.86
2019-04-06T03:14:22.935Z,96.66
2019-04-06T03:15:22.726Z,96.86
2019-04-06T03:16:22.717Z,96.97
2019-04-06T03:17:22.708Z,96.55
2019-04-06T03:18:22.714Z,96.61
2019-04-06T03:19:22.682Z,96.30
2019-04-06T03:20:22.669Z,96.41
2019-04-06T03:21:22.669Z,96.51
2019-04-06T03:22:22.657Z,96.72
2019-04-06T03:23:24.840Z,96.45
2019-04-06T03:24:22.625Z,97.07
2019-04-06T03:25:22.617Z,96.55
2019-04-06T03:26:22.601Z,96.66
2019-04-06T03:27:22.589Z,96.45
2019-04-06T03:28:22.579Z,96.66
2019-04-06T03:29:22.608Z,96.55
2019-04-06T03:30:22.570Z,96.86
2019-04-06T03:31:26.554Z,96.24
2019-04-06T03:32:23.536Z,96.66
2019-04-06T03:33:22.580Z,96.91
2019-04-06T03:34:22.904Z,96.76
2019-04-06T03:35:22.518Z,96.55
2019-04-06T03:36:22.497Z,96.86
2019-04-06T03:37:22.484Z,96.66
2019-04-06T03:38:22.492Z,96.45
2019-04-06T03:39:22.548Z,96.97
2019-04-06T03:40:22.452Z,96.97
2019-04-06T03:41:22.450Z,96.76
2019-04-06T03:42:22.434Z,96.70
2019-04-06T03:43:22.419Z,96.64
2019-04-06T03:44:22.413Z,96.64
2019-04-06T03:45:22.395Z,96.33
2019-04-06T03:46:22.400Z,97.06
2019-04-06T03:47:22.371Z,96.91
2019-04-06T03:48:22.369Z,96.45
2019-04-06T03:49:22.353Z,96.41
2019-04-06T03:50:22.341Z,96.82
2019-04-06T03:51:22.337Z,96.52
2019-04-06T03:52:22.318Z,96.42
2019-04-06T03:53:22.550Z,96.21
2019-04-06T03:54:22.317Z,96.06
2019-04-06T03:55:22.554Z,95.44
2019-04-06T03:56:22.282Z,94.82
2019-04-06T03:57:22.276Z,94.45
2019-04-06T03:58:22.255Z,94.66
2019-04-06T03:59:22.269Z,94.76
2019-04-06T04:00:22.242Z,94.70
2019-04-06T04:01:22.221Z,94.81
2019-04-06T04:02:22.213Z,94.49
2019-04-06T04:03:22.199Z,94.91
2019-04-06T04:04:22.190Z,94.56
2019-04-06T04:05:22.178Z,94.81
2019-04-06T04:06:22.163Z,94.64
2019-04-06T04:07:22.153Z,94.23
2019-04-06T04:08:22.148Z,94.17
2019-04-06T04:09:22.140Z,94.68
2019-04-06T04:10:22.131Z,94.27
2019-04-06T04:11:22.108Z,94.73
2019-04-06T04:12:22.102Z,93.90
2019-04-06T04:13:22.123Z,94.78
2019-04-06T04:14:22.079Z,95.09
2019-04-06T04:15:22.079Z,94.57
2019-04-06T04:16:22.053Z,94.88
2019-04-06T04:17:22.061Z,94.82
2019-04-06T04:18:22.031Z,94.82
2019-04-06T04:19:22.027Z,95.75
2019-04-06T04:20:22.015Z,95.44
2019-04-06T04:21:22.001Z,95.54
2019-04-06T04:22:21.994Z,95.38
2019-04-06T04:23:21.981Z,95.65
2019-04-06T04:24:21.964Z,95.86
2019-04-06T04:25:21.958Z,95.79
2019-04-06T04:26:21.985Z,96.21
2019-04-06T04:27:28.563Z,96.48
2019-04-06T04:28:22.940Z,96.33
2019-04-06T04:29:21.919Z,96.75
2019-04-06T04:30:32.407Z,96.95
2019-04-06T04:31:22.957Z,96.85
2019-04-06T04:32:21.897Z,96.60
2019-04-06T04:33:21.972Z,96.34
2019-04-06T04:34:22.052Z,96.76
2019-04-06T04:35:21.854Z,96.76
2019-04-06T04:36:21.843Z,96.66
2019-04-06T04:37:22.158Z,96.45
2019-04-06T04:38:21.821Z,96.97
2019-04-06T04:39:21.811Z,96.76
2019-04-06T04:40:21.797Z,96.92
2019-04-06T04:41:21.951Z,96.72
2019-04-06T04:42:21.780Z,96.45
2019-04-06T04:43:21.773Z,96.66
2019-04-06T04:44:21.749Z,96.70
2019-04-06T04:45:21.740Z,96.60
2019-04-06T04:46:21.741Z,96.44
2019-04-06T04:47:21.736Z,96.54
2019-04-06T04:48:21.711Z,96.75
2019-04-06T04:49:21.694Z,96.75
2019-04-06T04:50:21.685Z,96.95
2019-04-06T04:51:21.683Z,96.58
2019-04-06T04:52:21.669Z,97.00
2019-04-06T04:53:21.660Z,96.79
2019-04-06T04:54:21.638Z,96.85
2019-04-06T04:55:21.630Z,96.79
2019-04-06T04:56:21.622Z,96.64
2019-04-06T04:57:21.612Z,96.79
2019-04-06T04:58:21.609Z,96.75
2019-04-06T04:59:21.597Z,96.58
2019-04-06T05:00:21.585Z,96.54
2019-04-06T05:01:21.571Z,96.69
2019-04-06T05:02:21.560Z,97.06
2019-04-06T05:03:21.544Z,96.85
2019-04-06T05:04:21.545Z,96.64
2019-04-06T05:05:21.610Z,96.64
2019-04-06T05:06:21.521Z,97.47
2019-04-06T05:07:21.504Z,97.47
2019-04-06T05:08:21.494Z,96.81
2019-04-06T05:09:21.499Z,96.70
2019-04-06T05:10:21.476Z,96.64
2019-04-06T05:11:21.468Z,96.95
2019-04-06T05:12:21.446Z,97.06
2019-04-06T05:13:21.443Z,97.22
2019-04-06T05:14:21.434Z,97.12
2019-04-06T05:15:21.420Z,97.53
2019-04-06T05:16:21.415Z,97.43
2019-04-06T05:17:21.393Z,97.38
2019-04-06T05:18:21.510Z,97.44
2019-04-06T05:19:21.373Z,97.14
2019-04-06T05:20:23.779Z,96.94
2019-04-06T05:21:21.348Z,97.29
2019-04-06T05:22:21.487Z,96.36
2019-04-06T05:23:21.328Z,96.67
2019-04-06T05:24:21.322Z,96.26
2019-04-06T05:25:21.305Z,96.78
2019-04-06T05:26:21.293Z,96.72
2019-04-06T05:27:21.458Z,96.72
2019-04-06T05:28:21.274Z,96.61
2019-04-06T05:29:21.365Z,96.41
2019-04-06T05:30:21.248Z,96.51
2019-04-06T05:31:21.237Z,96.15
2019-04-06T05:32:21.233Z,96.31
2019-04-06T05:33:21.547Z,96.59
2019-04-06T05:34:21.288Z,95.90
2019-04-06T05:35:21.196Z,93.35
2019-04-06T05:36:21.182Z,92.30
2019-04-06T05:37:21.176Z,90.12
2019-04-06T05:38:21.199Z,88.35
2019-04-06T05:39:21.151Z,85.80
2019-04-06T05:40:21.141Z,83.58
2019-04-06T05:41:21.140Z,80.94
2019-04-06T05:42:21.338Z,79.64
2019-04-06T05:43:21.128Z,79.77
2019-04-06T05:44:21.102Z,76.06
2019-04-06T05:45:21.099Z,75.78
2019-04-06T05:46:21.084Z,72.82
2019-04-06T05:47:21.065Z,70.17
2019-04-06T05:48:21.087Z,68.30
2019-04-06T05:49:21.040Z,66.91
2019-04-06T05:50:21.025Z,67.41
2019-04-06T05:51:21.024Z,67.59
2019-04-06T05:52:21.010Z,69.32
2019-04-06T05:53:21.181Z,69.36
2019-04-06T05:54:21.076Z,69.49
2019-04-06T05:55:20.973Z,62.71
2019-04-06T05:56:21.021Z,64.48
2019-04-06T05:57:20.986Z,64.65
2019-04-06T05:58:20.952Z,63.88
2019-04-06T05:59:20.950Z,61.93
2019-04-06T06:00:20.938Z,61.76
2019-04-06T06:01:20.951Z,59.33
2019-04-06T06:02:20.906Z,59.01
2019-04-06T06:03:20.897Z,61.49
2019-04-06T06:04:20.888Z,60.04
2019-04-06T06:05:21.000Z,59.07
2019-04-06T06:06:20.931Z,56.41
2019-04-06T06:07:21.020Z,54.89
2019-04-06T06:08:21.015Z,54.76
2019-04-06T06:09:20.844Z,55.35
2019-04-06T06:10:20.829Z,52.61
2019-04-06T06:11:20.836Z,52.89
2019-04-06T06:12:21.151Z,53.63
2019-04-06T06:13:20.783Z,55.20
2019-04-06T06:14:20.845Z,56.55
2019-04-06T06:15:20.788Z,57.46
2019-04-06T06:16:20.803Z,57.52
2019-04-06T06:17:20.957Z,58.56
2019-04-06T06:18:26.466Z,60.07
2019-04-06T06:19:21.716Z,61.47
2019-04-06T06:20:20.719Z,61.16
2019-04-06T06:21:20.698Z,60.19
2019-04-06T06:22:20.704Z,60.24
2019-04-06T06:23:20.668Z,60.25
2019-04-06T06:24:20.677Z,58.98
2019-04-06T06:25:20.681Z,57.28
2019-04-06T06:26:20.630Z,54.56
2019-04-06T06:27:22.731Z,55.22
2019-04-06T06:28:20.644Z,53.05
2019-04-06T06:29:20.607Z,52.51
2019-04-06T06:30:20.681Z,50.98
2019-04-06T06:31:20.774Z,50.95
2019-04-06T06:32:20.742Z,50.57
2019-04-06T06:33:20.642Z,50.90
2019-04-06T06:34:20.827Z,50.93
2019-04-06T06:35:20.590Z,49.54
2019-04-06T06:36:20.545Z,50.01
2019-04-06T06:37:20.594Z,51.02
2019-04-06T06:38:20.592Z,52.99
2019-04-06T06:39:20.495Z,53.07
2019-04-06T06:40:20.475Z,52.92
2019-04-06T06:41:20.485Z,52.51
2019-04-06T06:42:20.459Z,52.97
2019-04-06T06:43:20.448Z,50.70
2019-04-06T06:44:20.450Z,50.98
2019-04-06T06:45:20.422Z,50.92
2019-04-06T06:46:20.414Z,51.71
2019-04-06T06:47:20.404Z,50.82
2019-04-06T06:48:20.385Z,49.82
2019-04-06T06:49:20.391Z,48.69
2019-04-06T06:50:20.370Z,48.43
2019-04-06T06:51:20.393Z,50.61
2019-04-06T06:52:20.356Z,55.66
2019-04-06T06:53:20.342Z,57.23
2019-04-06T06:54:20.328Z,58.30
2019-04-06T06:55:20.307Z,60.57
2019-04-06T06:56:20.304Z,59.30
2019-04-06T06:57:20.288Z,58.35
2019-04-06T06:58:25.628Z,58.51
2019-04-06T06:59:21.284Z,59.19
2019-04-06T07:00:20.261Z,58.99
2019-04-06T07:01:20.236Z,58.22
2019-04-06T07:02:20.227Z,56.87
2019-04-06T07:03:20.223Z,58.04
2019-04-06T07:04:20.424Z,60.03
2019-04-06T07:05:20.194Z,58.89
2019-04-06T07:06:20.328Z,58.99
2019-04-06T07:07:20.170Z,58.33
2019-04-06T07:08:20.167Z,56.85
2019-04-06T07:09:20.148Z,56.52
2019-04-06T07:10:20.153Z,55.50
2019-04-06T07:11:20.128Z,53.70
2019-04-06T07:12:20.119Z,52.51
2019-04-06T07:13:20.111Z,52.31
2019-04-06T07:14:20.097Z,49.32
2019-04-06T07:15:20.386Z,48.17
2019-04-06T07:16:20.081Z,47.42
2019-04-06T07:17:20.124Z,46.55
2019-04-06T07:18:20.136Z,43.44
2019-04-06T07:19:20.038Z,44.72
2019-04-06T07:20:20.026Z,44.80
2019-04-06T07:21:20.195Z,42.91
2019-04-06T07:22:20.018Z,44.22
2019-04-06T07:23:19.994Z,44.74
2019-04-06T07:24:20.012Z,44.00
2019-04-06T07:25:20.142Z,47.02
2019-04-06T07:26:20.181Z,46.41
2019-04-06T07:27:19.956Z,47.00
2019-04-06T07:28:19.938Z,46.45
2019-04-06T07:29:19.939Z,46.45
2019-04-06T07:30:19.938Z,46.47
2019-04-06T07:31:19.904Z,46.57
2019-04-06T07:32:19.898Z,46.55
2019-04-06T07:33:20.004Z,44.95
2019-04-06T07:34:19.876Z,46.33
2019-04-06T07:35:19.862Z,44.98
2019-04-06T07:36:20.046Z,42.88
2019-04-06T07:37:19.849Z,43.66
2019-04-06T07:38:19.844Z,44.40
2019-04-06T07:39:19.826Z,44.60
2019-04-06T07:40:19.879Z,47.43
2019-04-06T07:41:19.795Z,49.24
2019-04-06T07:42:19.783Z,50.87
2019-04-06T07:43:19.777Z,51.88
2019-04-06T07:44:19.923Z,53.17
2019-04-06T07:45:19.780Z,52.46
2019-04-06T07:46:19.759Z,52.99
2019-04-06T07:47:19.764Z,53.47
2019-04-06T07:48:19.808Z,53.27
2019-04-06T07:49:19.722Z,52.11
2019-04-06T07:50:19.702Z,52.31
2019-04-06T07:51:19.688Z,53.37
2019-04-06T07:52:19.709Z,54.03
2019-04-06T07:53:19.712Z,52.84
2019-04-06T07:54:19.663Z,51.83
2019-04-06T07:55:19.671Z,51.10
2019-04-06T07:56:20.746Z,50.73
2019-04-06T07:57:19.622Z,50.87
2019-04-06T07:58:19.614Z,51.40
2019-04-06T07:59:19.633Z,49.79
2019-04-06T08:00:19.634Z,49.60
2019-04-06T08:01:19.605Z,46.88
2019-04-06T08:02:19.566Z,47.46
2019-04-06T08:03:19.557Z,47.82
2019-04-06T08:04:19.644Z,46.18
2019-04-06T08:05:19.579Z,48.36
2019-04-06T08:06:19.540Z,50.02
2019-04-06T08:07:19.510Z,50.90
2019-04-06T08:08:19.520Z,50.62
2019-04-06T08:09:19.534Z,53.14
2019-04-06T08:10:19.479Z,52.76
2019-04-06T08:11:19.467Z,51.68
2019-04-06T08:12:19.457Z,51.68
2019-04-06T08:13:19.444Z,52.39
2019-04-06T08:14:19.431Z,50.78
2019-04-06T08:15:19.422Z,51.68
2019-04-06T08:16:19.466Z,51.98
2019-04-06T08:17:19.590Z,51.07
2019-04-06T08:18:19.401Z,52.44
2019-04-06T08:19:19.556Z,52.56
2019-04-06T08:20:19.365Z,50.13
2019-04-06T08:21:19.720Z,48.94
2019-04-06T08:22:19.362Z,49.25
2019-04-06T08:23:19.339Z,47.13
2019-04-06T08:24:19.438Z,43.84
2019-04-06T08:25:19.361Z,42.83
2019-04-06T08:26:19.317Z,43.12
2019-04-06T08:27:19.289Z,44.34
2019-04-06T08:28:19.421Z,43.21
2019-04-06T08:29:19.269Z,42.82
2019-04-06T08:30:19.260Z,43.82
2019-04-06T08:31:19.452Z,40.56
2019-04-06T08:32:19.242Z,40.72
2019-04-06T08:33:19.223Z,40.56
2019-04-06T08:34:19.233Z,39.96
2019-04-06T08:35:25.431Z,38.86
2019-04-06T08:36:20.191Z,40.64
2019-04-06T08:37:19.190Z,39.62
2019-04-06T08:38:19.195Z,38.75
2019-04-06T08:39:19.187Z,38.72
2019-04-06T08:40:19.157Z,40.32
2019-04-06T08:41:19.152Z,39.72
2019-04-06T08:42:19.155Z,40.70
2019-04-06T08:43:19.129Z,40.08
2019-04-06T08:44:19.110Z,38.70
2019-04-06T08:45:19.121Z,40.53
2019-04-06T08:46:19.097Z,40.17
2019-04-06T08:47:19.079Z,41.24
2019-04-06T08:48:19.066Z,41.43
2019-04-06T08:49:19.062Z,42.93
2019-04-06T08:50:19.074Z,43.48
2019-04-06T08:51:19.054Z,42.25
2019-04-06T08:52:19.051Z,41.21
2019-04-06T08:53:19.013Z,42.60
2019-04-06T08:54:19.016Z,39.87
2019-04-06T08:55:18.989Z,40.47
2019-04-06T08:56:18.982Z,41.47
2019-04-06T08:57:19.008Z,38.82
2019-04-06T08:58:19.115Z,40.10
2019-04-06T08:59:18.950Z,38.59
2019-04-06T09:00:19.048Z,37.97
2019-04-06T09:01:18.929Z,37.75
2019-04-06T09:02:18.922Z,35.22
2019-04-06T09:03:19.100Z,35.27
2019-04-06T09:04:18.904Z,35.14
2019-04-06T09:05:18.963Z,36.58
2019-04-06T09:06:18.890Z,37.83
2019-04-06T09:07:18.920Z,38.67
2019-04-06T09:08:18.857Z,38.72
2019-04-06T09:09:18.910Z,42.10
2019-04-06T09:10:18.847Z,42.90
2019-04-06T09:11:18.829Z,45.21
2019-04-06T09:12:18.849Z,45.12
2019-04-06T09:13:19.002Z,47.86
2019-04-06T09:14:18.828Z,47.02
2019-04-06T09:15:18.786Z,48.58
2019-04-06T09:16:18.789Z,50.59
2019-04-06T09:17:18.806Z,50.24
2019-04-06T09:18:18.749Z,48.61
2019-04-06T09:19:18.769Z,49.74
2019-04-06T09:20:18.739Z,48.65
2019-04-06T09:21:18.721Z,47.38
2019-04-06T09:22:18.717Z,46.60
2019-04-06T09:23:18.704Z,45.03
2019-04-06T09:24:18.720Z,44.80
2019-04-06T09:25:18.700Z,42.85
2019-04-06T09:26:18.675Z,42.76
2019-04-06T09:27:18.815Z,40.57
2019-04-06T09:28:18.657Z,42.05
2019-04-06T09:29:23.902Z,40.57
2019-04-06T09:30:19.633Z,43.68
2019-04-06T09:31:18.740Z,44.46
2019-04-06T09:32:18.865Z,42.24
2019-04-06T09:33:18.622Z,43.68
2019-04-06T09:34:18.818Z,39.50
2019-04-06T09:35:18.575Z,39.06
2019-04-06T09:36:18.596Z,39.98
2019-04-06T09:37:18.852Z,42.07
2019-04-06T09:38:18.603Z,40.23
2019-04-06T09:39:18.534Z,39.29
2019-04-06T09:40:18.524Z,40.83
2019-04-06T09:41:18.517Z,40.17
2019-04-06T09:42:18.506Z,39.04
2019-04-06T09:43:18.842Z,39.10
2019-04-06T09:44:18.486Z,37.83
2019-04-06T09:45:18.469Z,35.99
2019-04-06T09:46:18.461Z,35.67
2019-04-06T09:47:18.451Z,36.49
2019-04-06T09:48:18.449Z,35.34
2019-04-06T09:49:18.434Z,38.45
2019-04-06T09:50:18.428Z,38.24
2019-04-06T09:51:18.407Z,39.84
2019-04-06T09:52:18.397Z,38.48
2019-04-06T09:53:18.395Z,37.56
2019-04-06T09:54:18.386Z,41.60
2019-04-06T09:55:18.486Z,37.79
2019-04-06T09:56:18.359Z,37.74
2019-04-06T09:57:18.360Z,39.84
2019-04-06T09:58:18.333Z,41.41
2019-04-06T09:59:18.324Z,41.83
2019-04-06T10:00:18.314Z,40.71
2019-04-06T10:01:18.313Z,42.90
2019-04-06T10:02:18.295Z,42.30
2019-04-06T10:03:18.293Z,41.05
2019-04-06T10:04:18.286Z,42.30
2019-04-06T10:05:18.307Z,40.30
2019-04-06T10:06:18.259Z,39.00
2019-04-06T10:07:18.471Z,39.14
2019-04-06T10:08:18.237Z,39.70
2019-04-06T10:09:18.225Z,38.07
2019-04-06T10:10:18.259Z,36.37
2019-04-06T10:11:18.213Z,36.93
2019-04-06T10:12:18.205Z,35.38
2019-04-06T10:13:18.183Z,32.74
2019-04-06T10:14:18.341Z,35.38
2019-04-06T10:15:18.183Z,38.80
2019-04-06T10:16:18.174Z,36.21
2019-04-06T10:17:18.274Z,36.66
2019-04-06T10:18:18.141Z,36.43
2019-04-06T10:19:18.126Z,37.21
2019-04-06T10:20:18.136Z,37.24
2019-04-06T10:21:18.110Z,37.74
2019-04-06T10:22:18.374Z,36.89
2019-04-06T10:23:18.085Z,35.22
2019-04-06T10:24:18.077Z,34.61
2019-04-06T10:25:18.079Z,35.67
2019-04-06T10:26:18.181Z,35.14
2019-04-06T10:27:18.063Z,34.69
2019-04-06T10:28:18.036Z,31.92
2019-04-06T10:29:18.196Z,31.87
2019-04-06T10:30:18.078Z,34.59
2019-04-06T10:31:18.113Z,33.93
2019-04-06T10:32:18.003Z,37.15
2019-04-06T10:33:17.994Z,37.21
2019-04-06T10:34:17.986Z,35.38
2019-04-06T10:35:17.973Z,37.97
2019-04-06T10:36:18.057Z,39.94
2019-04-06T10:37:17.954Z,40.89
2019-04-06T10:38:17.944Z,39.91
2019-04-06T10:39:17.941Z,41.03
2019-04-06T10:40:17.923Z,40.63
2019-04-06T10:41:17.911Z,40.19
2019-04-06T10:42:18.176Z,38.52
2019-04-06T10:43:17.997Z,38.07
2019-04-06T10:44:17.882Z,39.10
2019-04-06T10:45:17.876Z,37.55
2019-04-06T10:46:18.103Z,37.79
2019-04-06T10:47:17.913Z,35.83
2019-04-06T10:48:17.892Z,33.92
2019-04-06T10:49:17.859Z,34.96
2019-04-06T10:50:18.042Z,36.27
2019-04-06T10:51:17.818Z,36.30
2019-04-06T10:52:17.810Z,36.31
2019-04-06T10:53:17.802Z,38.98
2019-04-06T10:54:17.794Z,38.57
2019-04-06T10:55:17.795Z,38.24
2019-04-06T10:56:18.067Z,37.13
2019-04-06T10:57:17.790Z,35.47
2019-04-06T10:58:17.807Z,35.69
2019-04-06T10:59:17.752Z,34.92
2019-04-06T11:00:17.744Z,34.27
2019-04-06T11:01:17.725Z,35.83
2019-04-06T11:02:17.714Z,30.12
2019-04-06T11:03:17.756Z,32.60
2019-04-06T11:04:17.696Z,33.78
2019-04-06T11:05:17.686Z,32.58
2019-04-06T11:06:17.678Z,33.67
2019-04-06T11:07:17.660Z,32.10
2019-04-06T11:08:17.841Z,32.59
2019-04-06T11:09:17.908Z,34.53
2019-04-06T11:10:17.731Z,34.56
2019-04-06T11:11:20.350Z,35.91
2019-04-06T11:12:17.626Z,35.41
2019-04-06T11:13:17.613Z,38.42
2019-04-06T11:14:17.599Z,36.40
2019-04-06T11:15:17.610Z,40.25
2019-04-06T11:16:17.577Z,40.56
2019-04-06T11:17:17.568Z,39.11
2019-04-06T11:18:17.555Z,38.61
2019-04-06T11:19:17.553Z,40.23
2019-04-06T11:20:17.544Z,38.44
2019-04-06T11:21:17.623Z,37.24
2019-04-06T11:22:17.601Z,35.08
2019-04-06T11:23:17.508Z,35.41
2019-04-06T11:24:17.503Z,33.76
2019-04-06T11:25:17.525Z,31.90
2019-04-06T11:26:17.662Z,31.40
2019-04-06T11:27:17.481Z,30.11
2019-04-06T11:28:17.494Z,31.38
2019-04-06T11:29:17.461Z,29.98
2019-04-06T11:30:17.701Z,29.78
2019-04-06T11:31:17.491Z,32.09
2019-04-06T11:32:17.423Z,31.76
2019-04-06T11:33:17.414Z,32.80
2019-04-06T11:34:17.403Z,34.08
2019-04-06T11:35:17.397Z,34.38
2019-04-06T11:36:17.388Z,34.81
2019-04-06T11:37:17.371Z,30.65
2019-04-06T11:38:17.613Z,31.42
2019-04-06T11:39:17.504Z,32.20
2019-04-06T11:40:17.346Z,32.56
2019-04-06T11:41:17.741Z,30.09
2019-04-06T11:42:17.325Z,30.36
2019-04-06T11:43:17.411Z,30.23
2019-04-06T11:44:17.435Z,30.07
2019-04-06T11:45:17.376Z,30.09
2019-04-06T11:46:17.350Z,29.07
2019-04-06T11:47:17.276Z,30.05
2019-04-06T11:48:17.271Z,29.78
2019-04-06T11:49:17.257Z,30.72
2019-04-06T11:50:17.310Z,32.09
2019-04-06T11:51:17.579Z,31.05
2019-04-06T11:52:17.326Z,31.24
2019-04-06T11:53:17.260Z,31.34
2019-04-06T11:54:17.228Z,29.74
2019-04-06T11:55:17.205Z,30.59
2019-04-06T11:56:17.378Z,31.15
2019-04-06T11:57:17.182Z,34.80
2019-04-06T11:58:17.572Z,33.73
2019-04-06T11:59:17.157Z,34.59
2019-04-06T12:00:26.057Z,34.27
2019-04-06T12:01:18.276Z,34.81
2019-04-06T12:02:17.130Z,31.87
2019-04-06T12:03:17.120Z,30.12
2019-04-06T12:04:17.107Z,31.18
2019-04-06T12:05:17.138Z,32.20
2019-04-06T12:06:17.098Z,33.83
2019-04-06T12:07:17.094Z,31.70
2019-04-06T12:08:17.089Z,29.57
2019-04-06T12:09:17.225Z,29.52
2019-04-06T12:10:17.050Z,30.15
2019-04-06T12:11:17.319Z,29.25
2019-04-06T12:12:17.122Z,29.82
2019-04-06T12:13:17.020Z,29.81
2019-04-06T12:14:17.039Z,28.52
2019-04-06T12:15:17.225Z,28.06
2019-04-06T12:16:17.047Z,27.77
2019-04-06T12:17:16.985Z,29.06
2019-04-06T12:18:18.472Z,30.60
2019-04-06T12:19:16.967Z,32.20
2019-04-06T12:20:16.955Z,34.55
2019-04-06T12:21:16.948Z,33.56
2019-04-06T12:22:17.247Z,33.23
2019-04-06T12:23:16.918Z,32.17
2019-04-06T12:24:16.917Z,30.94
2019-04-06T12:25:16.938Z,32.62
2019-04-06T12:26:16.894Z,30.24
2019-04-06T12:27:16.922Z,32.53
2019-04-06T12:28:16.909Z,30.21
2019-04-06T12:29:17.119Z,30.11
2019-04-06T12:30:16.865Z,30.41
2019-04-06T12:31:16.851Z,30.77
2019-04-06T12:32:17.200Z,30.25
2019-04-06T12:33:16.863Z,30.83
2019-04-06T12:34:16.997Z,31.14
2019-04-06T12:35:16.815Z,30.93
2019-04-06T12:36:16.796Z,34.75
2019-04-06T12:37:16.852Z,36.08
2019-04-06T12:38:16.810Z,34.78
2019-04-06T12:39:17.045Z,36.02
2019-04-06T12:40:16.790Z,32.27
2019-04-06T12:41:17.027Z,32.67
2019-04-06T12:42:16.741Z,32.34
2019-04-06T12:43:16.722Z,32.09
2019-04-06T12:44:16.725Z,31.50
2019-04-06T12:45:16.725Z,31.18
2019-04-06T12:46:16.908Z,29.25
2019-04-06T12:47:16.758Z,27.87
2019-04-06T12:48:16.684Z,29.67
2019-04-06T12:49:16.734Z,29.10
2019-04-06T12:50:16.668Z,31.73
2019-04-06T12:51:16.659Z,32.68
2019-04-06T12:52:16.893Z,33.61